createdAt,value
2018-11-26T00:02:35.766Z,18.20
2018-11-26T00:07:38.364Z,18.30
2018-11-26T00:12:40.807Z,16.60
2018-11-26T00:17:43.261Z,17.30
2018-11-26T00:22:45.827Z,16.95
2018-11-26T00:27:48.237Z,16.12
2018-11-26T00:32:50.958Z,17.98
2018-11-26T00:37:53.400Z,16.55
2018-11-26T00:42:56.065Z,17.07
2018-11-26T00:47:58.470Z,17.52
2018-11-26T00:53:01.546Z,17.12
2018-11-26T00:58:03.968Z,18.52
2018-11-26T01:03:06.529Z,16.80
2018-11-26T01:08:09.967Z,17.23
2018-11-26T01:13:12.504Z,17.45
2018-11-26T01:18:15.027Z,17.60
2018-11-26T01:23:17.554Z,16.25
2018-11-26T01:28:20.003Z,16.95
2018-11-26T01:33:22.552Z,16.02
2018-11-26T01:38:24.976Z,15.75
2018-11-26T01:43:27.735Z,16.85
2018-11-26T01:48:30.180Z,17.10
2018-11-26T01:53:33.236Z,15.43
2018-11-26T01:58:35.746Z,17.32
2018-11-26T02:03:38.244Z,16.00
2018-11-26T02:08:40.715Z,15.95
2018-11-26T02:13:43.694Z,16.93
2018-11-26T02:18:46.196Z,16.05
2018-11-26T02:23:48.617Z,16.42
2018-11-26T02:28:51.083Z,15.32
2018-11-26T02:33:53.561Z,16.67
2018-11-26T02:38:56.405Z,16.15
2018-11-26T02:43:58.894Z,17.05
2018-11-26T02:49:02.062Z,16.82
2018-11-26T02:54:04.908Z,16.75
2018-11-26T02:59:07.379Z,17.15
2018-11-26T03:04:13.648Z,17.40
2018-11-26T03:09:16.151Z,17.27
2018-11-26T03:14:18.544Z,17.55
2018-11-26T03:19:20.959Z,17.07
2018-11-26T03:24:23.382Z,18.05
2018-11-26T03:29:25.785Z,17.62
2018-11-26T03:34:28.203Z,18.32
2018-11-26T03:39:30.604Z,18.32
2018-11-26T03:44:33.099Z,18.87
2018-11-26T03:49:35.541Z,17.73
2018-11-26T03:54:38.308Z,17.92
2018-11-26T03:59:40.775Z,18.75
2018-11-26T04:04:43.236Z,19.35
2018-11-26T04:09:45.894Z,18.85
2018-11-26T04:14:48.286Z,20.15
2018-11-26T04:19:50.727Z,19.40
2018-11-26T04:24:53.115Z,20.95
2018-11-26T04:29:55.566Z,19.50
2018-11-26T04:34:58.085Z,20.02
2018-11-26T04:40:00.495Z,21.52
2018-11-26T04:45:02.981Z,20.12
2018-11-26T04:50:10.864Z,21.02
2018-11-26T04:55:13.400Z,21.73
2018-11-26T05:00:22.467Z,20.80
2018-11-26T05:05:24.901Z,21.45
2018-11-26T05:10:27.353Z,21.97
2018-11-26T05:15:29.840Z,21.48
2018-11-26T05:20:32.279Z,20.95
2018-11-26T05:25:34.718Z,19.15
2018-11-26T05:30:37.265Z,20.82
2018-11-26T05:35:39.696Z,21.10
2018-11-26T05:40:42.070Z,21.20
2018-11-26T05:45:44.409Z,20.82
2018-11-26T05:50:46.781Z,20.43
2018-11-26T05:55:49.222Z,20.08
2018-11-26T06:00:51.604Z,20.77
2018-11-26T06:05:56.109Z,20.82
2018-11-26T06:10:58.972Z,20.55
2018-11-26T06:16:03.533Z,19.70
2018-11-26T06:21:06.926Z,22.20
2018-11-26T06:26:09.505Z,20.37
2018-11-26T06:31:13.855Z,20.02
2018-11-26T06:36:17.050Z,19.77
2018-11-26T06:41:21.706Z,20.52
2018-11-26T06:46:26.167Z,21.70
2018-11-26T06:51:28.630Z,19.37
2018-11-26T06:56:31.161Z,19.55
2018-11-26T07:01:33.611Z,19.10
2018-11-26T07:06:36.132Z,18.48
2018-11-26T07:11:38.624Z,19.60
2018-11-26T07:16:41.135Z,19.85
2018-11-26T07:21:43.492Z,17.85
2018-11-26T07:26:45.996Z,19.32
2018-11-26T07:31:48.428Z,18.05
2018-11-26T07:36:51.911Z,17.50
2018-11-26T07:41:54.456Z,17.30
2018-11-26T07:46:56.933Z,17.98
2018-11-26T07:51:59.377Z,17.50
2018-11-26T07:57:01.750Z,17.35
2018-11-26T08:02:04.493Z,17.77
2018-11-26T08:07:07.303Z,18.07
2018-11-26T08:12:09.731Z,17.95
2018-11-26T08:17:12.186Z,16.20
2018-11-26T08:22:14.615Z,17.52
2018-11-26T08:27:17.079Z,16.07
2018-11-26T08:32:19.581Z,17.05
2018-11-26T08:37:27.676Z,16.32
2018-11-26T08:42:35.593Z,16.48
2018-11-26T08:47:47.594Z,16.97
2018-11-26T08:52:50.210Z,15.88
2018-11-26T08:57:52.656Z,15.75
2018-11-26T09:02:55.108Z,16.05
2018-11-26T09:07:57.601Z,17.20
2018-11-26T09:13:00.093Z,17.30
2018-11-26T09:18:02.627Z,16.20
2018-11-26T09:23:06.270Z,16.15
2018-11-26T09:28:08.694Z,14.35
2018-11-26T09:33:11.400Z,14.45
2018-11-26T09:38:13.843Z,14.00
2018-11-26T09:43:16.345Z,13.25
2018-11-26T09:48:18.741Z,14.28
2018-11-26T09:53:21.194Z,13.75
2018-11-26T09:58:23.667Z,14.07
2018-11-26T10:03:26.130Z,14.15
2018-11-26T10:08:28.558Z,13.30
2018-11-26T10:13:31.039Z,13.62
2018-11-26T10:18:33.375Z,13.22
2018-11-26T10:23:35.800Z,13.08
2018-11-26T10:28:38.339Z,13.28
2018-11-26T10:33:41.065Z,11.28
2018-11-26T10:38:43.491Z,12.75
2018-11-26T10:43:47.839Z,12.63
2018-11-26T10:48:50.288Z,13.58
2018-11-26T10:53:52.692Z,12.20
2018-11-26T10:58:55.196Z,11.70
2018-11-26T11:03:57.942Z,12.20
2018-11-26T11:09:01.078Z,11.18
2018-11-26T11:14:03.671Z,12.07
2018-11-26T11:19:06.149Z,11.03
2018-11-26T11:24:08.842Z,11.68
2018-11-26T11:29:11.288Z,11.70
2018-11-26T11:34:13.715Z,11.97
2018-11-26T11:39:16.117Z,12.28
2018-11-26T11:44:23.200Z,11.60
2018-11-26T11:49:25.609Z,11.30
2018-11-26T11:54:28.080Z,11.30
2018-11-26T11:59:30.853Z,11.63
2018-11-26T12:04:33.333Z,11.53
2018-11-26T12:09:36.287Z,12.03
2018-11-26T12:14:38.914Z,12.60
2018-11-26T12:19:41.295Z,11.08
2018-11-26T12:24:43.704Z,11.22
2018-11-26T12:29:46.149Z,11.57
2018-11-26T12:34:48.672Z,12.53
2018-11-26T12:39:51.170Z,12.30
2018-11-26T12:44:53.814Z,11.68
2018-11-26T12:49:56.203Z,12.18
2018-11-26T12:54:58.586Z,11.83
2018-11-26T13:00:01.123Z,12.58
2018-11-26T13:05:04.601Z,11.48
2018-11-26T13:10:11.243Z,13.22
2018-11-26T13:15:15.823Z,13.53
2018-11-26T13:20:19.833Z,13.30
2018-11-26T13:25:23.396Z,13.55
2018-11-26T13:30:28.142Z,14.40
2018-11-26T13:35:30.649Z,14.43
2018-11-26T13:40:33.051Z,13.20
2018-11-26T13:45:37.165Z,14.55
2018-11-26T13:50:42.287Z,14.55
2018-11-26T13:55:44.766Z,14.55
2018-11-26T14:00:47.277Z,13.50
2018-11-26T14:05:49.727Z,13.03
2018-11-26T14:10:52.226Z,13.60
2018-11-26T14:15:54.770Z,13.25
2018-11-26T14:20:57.284Z,13.45
2018-11-26T14:25:59.687Z,12.98
2018-11-26T14:31:02.214Z,12.93
2018-11-26T14:36:05.331Z,13.08
2018-11-26T14:41:08.093Z,12.95
2018-11-26T14:46:10.614Z,12.50
2018-11-26T14:51:13.128Z,12.93
2018-11-26T14:56:15.516Z,13.90
2018-11-26T15:01:17.988Z,12.45
2018-11-26T15:06:20.436Z,13.48
2018-11-26T15:11:23.460Z,14.00
2018-11-26T15:16:26.089Z,13.43
2018-11-26T15:21:28.719Z,14.33
2018-11-26T15:26:31.155Z,13.78
2018-11-26T15:31:33.701Z,13.88
2018-11-26T15:36:36.705Z,14.07
2018-11-26T15:41:39.238Z,14.18
2018-11-26T15:46:42.196Z,20.43
2018-11-26T15:51:44.751Z,15.48
2018-11-26T15:56:47.150Z,14.95
2018-11-26T16:01:49.538Z,14.45
2018-11-26T16:06:52.001Z,14.90
2018-11-26T16:11:54.506Z,13.90
2018-11-26T16:16:57.603Z,14.70
2018-11-26T16:22:00.059Z,15.60
2018-11-26T16:27:02.798Z,14.50
2018-11-26T16:32:05.481Z,15.40
2018-11-26T16:37:07.995Z,16.40
2018-11-26T16:42:10.824Z,16.00
2018-11-26T16:47:13.812Z,15.60
2018-11-26T16:52:16.299Z,15.88
2018-11-26T16:57:18.816Z,15.10
2018-11-26T17:02:21.262Z,15.83
2018-11-26T17:07:23.753Z,16.85
2018-11-26T17:12:26.903Z,16.65
2018-11-26T17:17:29.584Z,17.15
2018-11-26T17:22:33.060Z,17.17
2018-11-26T17:27:35.722Z,17.05
2018-11-26T17:32:38.467Z,15.80
2018-11-26T17:37:43.032Z,15.80
2018-11-26T17:42:43.500Z,17.10
2018-11-26T17:47:49.386Z,16.12
2018-11-26T17:52:52.059Z,17.52
2018-11-26T17:57:55.667Z,16.52
2018-11-26T18:02:58.233Z,17.00
2018-11-26T18:08:04.154Z,16.27
2018-11-26T18:13:06.993Z,17.85
2018-11-26T18:18:12.186Z,16.17
2018-11-26T18:23:14.866Z,17.35
2018-11-26T18:28:17.790Z,17.30
2018-11-26T18:33:20.527Z,16.62
2018-11-26T18:38:23.130Z,15.68
2018-11-26T18:43:26.548Z,17.37
2018-11-26T18:48:29.230Z,15.85
2018-11-26T18:53:32.686Z,17.20
2018-11-26T18:58:35.328Z,16.40
2018-11-26T19:03:39.164Z,18.15
2018-11-26T19:08:41.644Z,16.95
2018-11-26T19:13:53.420Z,17.23
2018-11-26T19:18:55.988Z,18.10
2018-11-26T19:23:58.668Z,18.75
2018-11-26T19:29:01.302Z,18.35
2018-11-26T19:34:03.776Z,16.90
2018-11-26T19:39:08.574Z,18.02
2018-11-26T19:44:10.999Z,18.15
2018-11-26T19:49:13.505Z,17.85
2018-11-26T19:54:15.910Z,17.27
2018-11-26T19:59:19.023Z,16.90
2018-11-26T20:04:27.464Z,16.93
2018-11-26T20:09:30.044Z,15.55
2018-11-26T20:14:32.516Z,15.28
2018-11-26T20:19:35.386Z,14.50
2018-11-26T20:24:38.207Z,14.40
2018-11-26T20:29:41.138Z,14.03
2018-11-26T20:34:44.312Z,14.07
2018-11-26T20:39:46.912Z,14.43
2018-11-26T20:44:49.825Z,15.05
2018-11-26T20:49:52.938Z,15.05
2018-11-26T20:54:56.218Z,13.55
2018-11-26T20:59:58.940Z,14.78
2018-11-26T21:05:01.815Z,13.03
2018-11-26T21:10:05.471Z,14.85
2018-11-26T21:15:11.742Z,13.55
2018-11-26T21:20:17.888Z,13.15
2018-11-26T21:25:20.395Z,13.20
2018-11-26T21:30:23.009Z,12.73
2018-11-26T21:35:25.587Z,12.95
2018-11-26T21:40:30.063Z,13.28
2018-11-26T21:45:36.891Z,12.55
2018-11-26T21:50:40.241Z,13.13
2018-11-26T21:55:44.976Z,16.80
2018-11-26T22:00:50.589Z,12.88
2018-11-26T22:05:53.352Z,12.33
2018-11-26T22:10:58.214Z,12.73
2018-11-26T22:16:02.713Z,13.05
2018-11-26T22:21:07.038Z,13.72
2018-11-26T22:26:11.310Z,13.20
2018-11-26T22:31:13.920Z,12.58
2018-11-26T22:36:16.412Z,13.28
2018-11-26T22:41:18.868Z,12.90
2018-11-26T22:46:21.412Z,13.65
2018-11-26T22:51:23.817Z,11.90
2018-11-26T23:01:39.856Z,12.33
2018-11-26T23:06:42.254Z,11.30
2018-11-26T23:11:44.775Z,11.20
2018-11-26T23:16:47.337Z,12.23
2018-11-26T23:21:50.480Z,13.05
2018-11-26T23:26:52.282Z,12.45
2018-11-26T23:31:54.728Z,12.35
2018-11-26T23:36:57.498Z,11.18
2018-11-26T23:42:00.016Z,11.15
2018-11-26T23:47:02.540Z,12.13
2018-11-26T23:52:05.276Z,11.25
2018-11-26T23:57:07.800Z,12.33
